sensor_id;sensor_type;location;lat;lon;timestamp;P1;durP1;ratioP1;P2;durP2;ratioP2
5167;SDS011;2603;48.918;8.980;2024-03-29T00:00:35;3.20;;;1.20;;
5167;SDS011;2603;48.918;8.980;2024-03-29T00:03:01;1.73;;;1.00;;
5167;SDS011;2603;48.918;8.980;2024-03-29T00:05:26;2.20;;;1.00;;
5167;SDS011;2603;48.918;8.980;2024-03-29T00:07:52;2.03;;;1.00;;
5167;SDS011;2603;48.918;8.980;2024-03-29T00:10:18;3.53;;;1.03;;
5167;SDS011;2603;48.918;8.980;2024-03-29T00:12:44;4.00;;;1.70;;
5167;SDS011;2603;48.918;8.980;2024-03-29T00:15:10;3.03;;;1.30;;
5167;SDS011;2603;48.918;8.980;2024-03-29T00:17:36;1.77;;;1.00;;
5167;SDS011;2603;48.918;8.980;2024-03-29T00:20:01;1.77;;;0.90;;
5167;SDS011;2603;48.918;8.980;2024-03-29T00:22:28;4.30;;;1.10;;
5167;SDS011;2603;48.918;8.980;2024-03-29T00:24:53;2.50;;;1.00;;
5167;SDS011;2603;48.918;8.980;2024-03-29T00:27:19;3.13;;;0.90;;
5167;SDS011;2603;48.918;8.980;2024-03-29T00:29:46;1.47;;;0.90;;
5167;SDS011;2603;48.918;8.980;2024-03-29T00:32:11;3.13;;;1.17;;
5167;SDS011;2603;48.918;8.980;2024-03-29T00:34:37;2.50;;;1.10;;
5167;SDS011;2603;48.918;8.980;2024-03-29T00:37:03;3.30;;;1.40;;
5167;SDS011;2603;48.918;8.980;2024-03-29T00:39:29;2.30;;;1.40;;
5167;SDS011;2603;48.918;8.980;2024-03-29T00:41:54;2.47;;;1.10;;
5167;SDS011;2603;48.918;8.980;2024-03-29T00:44:20;2.97;;;1.30;;
5167;SDS011;2603;48.918;8.980;2024-03-29T00:46:47;7.80;;;1.03;;
5167;SDS011;2603;48.918;8.980;2024-03-29T00:49:12;5.50;;;1.20;;
5167;SDS011;2603;48.918;8.980;2024-03-29T00:51:38;3.63;;;1.30;;
5167;SDS011;2603;48.918;8.980;2024-03-29T00:54:04;2.13;;;1.10;;
5167;SDS011;2603;48.918;8.980;2024-03-29T00:56:29;3.23;;;1.47;;
5167;SDS011;2603;48.918;8.980;2024-03-29T00:58:55;2.07;;;1.10;;
5167;SDS011;2603;48.918;8.980;2024-03-29T01:01:20;3.53;;;1.03;;
5167;SDS011;2603;48.918;8.980;2024-03-29T01:03:47;2.10;;;1.10;;
5167;SDS011;2603;48.918;8.980;2024-03-29T01:06:13;3.60;;;1.10;;
5167;SDS011;2603;48.918;8.980;2024-03-29T01:08:39;2.17;;;1.10;;
5167;SDS011;2603;48.918;8.980;2024-03-29T01:11:04;3.37;;;1.10;;
5167;SDS011;2603;48.918;8.980;2024-03-29T01:13:30;2.20;;;1.00;;
5167;SDS011;2603;48.918;8.980;2024-03-29T01:15:55;16.13;;;1.63;;
5167;SDS011;2603;48.918;8.980;2024-03-29T01:18:21;2.83;;;1.27;;
5167;SDS011;2603;48.918;8.980;2024-03-29T01:20:48;2.97;;;1.20;;
5167;SDS011;2603;48.918;8.980;2024-03-29T01:23:13;3.80;;;1.43;;
5167;SDS011;2603;48.918;8.980;2024-03-29T01:25:39;1.63;;;0.83;;
5167;SDS011;2603;48.918;8.980;2024-03-29T01:28:05;4.27;;;1.00;;
5167;SDS011;2603;48.918;8.980;2024-03-29T01:30:30;4.40;;;1.40;;
5167;SDS011;2603;48.918;8.980;2024-03-29T01:32:56;2.53;;;1.00;;
5167;SDS011;2603;48.918;8.980;2024-03-29T01:35:22;2.20;;;1.33;;
5167;SDS011;2603;48.918;8.980;2024-03-29T01:37:48;2.00;;;0.90;;
5167;SDS011;2603;48.918;8.980;2024-03-29T01:40:14;6.73;;;1.10;;
5167;SDS011;2603;48.918;8.980;2024-03-29T01:42:40;2.50;;;0.90;;
5167;SDS011;2603;48.918;8.980;2024-03-29T01:45:06;1.63;;;0.80;;
5167;SDS011;2603;48.918;8.980;2024-03-29T01:47:33;2.03;;;0.87;;
5167;SDS011;2603;48.918;8.980;2024-03-29T01:49:59;5.00;;;0.97;;
5167;SDS011;2603;48.918;8.980;2024-03-29T01:52:26;2.20;;;1.27;;
5167;SDS011;2603;48.918;8.980;2024-03-29T01:54:55;4.63;;;1.57;;
5167;SDS011;2603;48.918;8.980;2024-03-29T01:57:22;2.73;;;1.10;;
5167;SDS011;2603;48.918;8.980;2024-03-29T01:59:48;3.47;;;1.50;;
5167;SDS011;2603;48.918;8.980;2024-03-29T02:02:15;3.43;;;0.80;;
5167;SDS011;2603;48.918;8.980;2024-03-29T02:04:42;2.13;;;0.90;;
5167;SDS011;2603;48.918;8.980;2024-03-29T02:07:08;2.93;;;1.07;;
5167;SDS011;2603;48.918;8.980;2024-03-29T02:09:35;1.40;;;0.80;;
5167;SDS011;2603;48.918;8.980;2024-03-29T02:12:03;2.63;;;0.70;;
5167;SDS011;2603;48.918;8.980;2024-03-29T02:14:29;1.80;;;0.97;;
5167;SDS011;2603;48.918;8.980;2024-03-29T02:16:55;2.90;;;1.00;;
5167;SDS011;2603;48.918;8.980;2024-03-29T02:19:22;3.17;;;1.27;;
5167;SDS011;2603;48.918;8.980;2024-03-29T02:21:48;3.57;;;1.10;;
5167;SDS011;2603;48.918;8.980;2024-03-29T02:24:19;2.60;;;1.03;;
5167;SDS011;2603;48.918;8.980;2024-03-29T02:26:45;3.37;;;1.13;;
5167;SDS011;2603;48.918;8.980;2024-03-29T02:29:12;1.80;;;0.93;;
5167;SDS011;2603;48.918;8.980;2024-03-29T02:31:38;1.97;;;1.00;;
5167;SDS011;2603;48.918;8.980;2024-03-29T02:34:05;1.83;;;1.03;;
5167;SDS011;2603;48.918;8.980;2024-03-29T02:36:32;4.30;;;1.10;;
5167;SDS011;2603;48.918;8.980;2024-03-29T02:38:59;3.40;;;1.47;;
5167;SDS011;2603;48.918;8.980;2024-03-29T02:41:27;2.23;;;1.00;;
5167;SDS011;2603;48.918;8.980;2024-03-29T02:43:55;3.70;;;1.00;;
5167;SDS011;2603;48.918;8.980;2024-03-29T02:46:21;3.30;;;1.23;;
5167;SDS011;2603;48.918;8.980;2024-03-29T02:48:47;4.37;;;1.53;;
5167;SDS011;2603;48.918;8.980;2024-03-29T02:51:13;3.13;;;1.30;;
5167;SDS011;2603;48.918;8.980;2024-03-29T02:53:39;2.50;;;0.97;;
5167;SDS011;2603;48.918;8.980;2024-03-29T02:56:05;2.00;;;1.00;;
5167;SDS011;2603;48.918;8.980;2024-03-29T02:58:33;2.80;;;1.23;;
5167;SDS011;2603;48.918;8.980;2024-03-29T03:01:04;2.50;;;1.10;;
5167;SDS011;2603;48.918;8.980;2024-03-29T03:03:31;8.27;;;1.10;;
5167;SDS011;2603;48.918;8.980;2024-03-29T03:05:57;3.40;;;0.83;;
5167;SDS011;2603;48.918;8.980;2024-03-29T03:08:23;4.30;;;1.60;;
5167;SDS011;2603;48.918;8.980;2024-03-29T03:11:07;3.83;;;1.40;;
5167;SDS011;2603;48.918;8.980;2024-03-29T03:13:35;3.70;;;1.10;;
5167;SDS011;2603;48.918;8.980;2024-03-29T03:16:02;2.60;;;1.30;;
5167;SDS011;2603;48.918;8.980;2024-03-29T03:18:29;3.03;;;1.07;;
5167;SDS011;2603;48.918;8.980;2024-03-29T03:20:54;2.90;;;1.17;;
5167;SDS011;2603;48.918;8.980;2024-03-29T03:23:23;2.73;;;1.20;;
5167;SDS011;2603;48.918;8.980;2024-03-29T03:25:53;3.40;;;1.27;;
5167;SDS011;2603;48.918;8.980;2024-03-29T03:28:19;2.47;;;1.00;;
5167;SDS011;2603;48.918;8.980;2024-03-29T03:30:46;2.03;;;1.17;;
5167;SDS011;2603;48.918;8.980;2024-03-29T03:33:16;1.53;;;0.80;;
5167;SDS011;2603;48.918;8.980;2024-03-29T03:35:41;1.57;;;0.73;;
5167;SDS011;2603;48.918;8.980;2024-03-29T03:38:08;2.40;;;1.07;;
5167;SDS011;2603;48.918;8.980;2024-03-29T03:40:34;2.27;;;1.20;;
5167;SDS011;2603;48.918;8.980;2024-03-29T03:43:00;5.00;;;1.07;;
5167;SDS011;2603;48.918;8.980;2024-03-29T03:45:26;5.63;;;1.07;;
5167;SDS011;2603;48.918;8.980;2024-03-29T03:47:54;4.33;;;1.47;;
5167;SDS011;2603;48.918;8.980;2024-03-29T03:50:19;3.43;;;0.90;;
5167;SDS011;2603;48.918;8.980;2024-03-29T03:52:46;1.93;;;0.97;;
5167;SDS011;2603;48.918;8.980;2024-03-29T03:55:11;6.00;;;1.17;;
5167;SDS011;2603;48.918;8.980;2024-03-29T03:57:38;1.70;;;0.87;;
5167;SDS011;2603;48.918;8.980;2024-03-29T04:00:04;1.60;;;0.90;;
5167;SDS011;2603;48.918;8.980;2024-03-29T04:02:37;1.50;;;0.90;;
5167;SDS011;2603;48.918;8.980;2024-03-29T04:05:04;1.50;;;0.77;;
5167;SDS011;2603;48.918;8.980;2024-03-29T04:07:32;1.70;;;1.07;;
5167;SDS011;2603;48.918;8.980;2024-03-29T04:09:58;1.57;;;0.90;;
5167;SDS011;2603;48.918;8.980;2024-03-29T04:12:24;2.13;;;0.90;;
5167;SDS011;2603;48.918;8.980;2024-03-29T04:14:50;3.27;;;1.10;;
5167;SDS011;2603;48.918;8.980;2024-03-29T04:17:16;1.23;;;0.70;;
5167;SDS011;2603;48.918;8.980;2024-03-29T04:19:42;4.60;;;1.10;;
5167;SDS011;2603;48.918;8.980;2024-03-29T04:22:09;1.10;;;0.60;;
5167;SDS011;2603;48.918;8.980;2024-03-29T04:24:35;1.60;;;0.80;;
5167;SDS011;2603;48.918;8.980;2024-03-29T04:27:01;1.60;;;0.80;;
5167;SDS011;2603;48.918;8.980;2024-03-29T04:29:29;1.87;;;0.80;;
5167;SDS011;2603;48.918;8.980;2024-03-29T04:31:55;1.40;;;0.70;;
5167;SDS011;2603;48.918;8.980;2024-03-29T04:34:21;2.93;;;0.60;;
5167;SDS011;2603;48.918;8.980;2024-03-29T04:36:47;2.33;;;0.90;;
5167;SDS011;2603;48.918;8.980;2024-03-29T04:39:15;3.90;;;1.20;;
5167;SDS011;2603;48.918;8.980;2024-03-29T04:41:41;1.80;;;1.00;;
5167;SDS011;2603;48.918;8.980;2024-03-29T04:44:08;2.33;;;0.97;;
5167;SDS011;2603;48.918;8.980;2024-03-29T04:46:34;6.33;;;0.90;;
5167;SDS011;2603;48.918;8.980;2024-03-29T04:49:01;1.77;;;0.90;;
5167;SDS011;2603;48.918;8.980;2024-03-29T04:51:27;1.63;;;0.80;;
5167;SDS011;2603;48.918;8.980;2024-03-29T04:53:54;2.53;;;1.43;;
5167;SDS011;2603;48.918;8.980;2024-03-29T04:56:22;1.80;;;0.70;;
5167;SDS011;2603;48.918;8.980;2024-03-29T04:58:48;2.43;;;0.97;;
5167;SDS011;2603;48.918;8.980;2024-03-29T05:01:15;1.77;;;0.70;;
5167;SDS011;2603;48.918;8.980;2024-03-29T05:03:41;1.27;;;0.60;;
5167;SDS011;2603;48.918;8.980;2024-03-29T05:06:08;1.70;;;0.90;;
5167;SDS011;2603;48.918;8.980;2024-03-29T05:08:34;4.20;;;0.93;;
5167;SDS011;2603;48.918;8.980;2024-03-29T05:11:02;2.77;;;0.80;;
5167;SDS011;2603;48.918;8.980;2024-03-29T05:13:30;6.93;;;0.93;;
5167;SDS011;2603;48.918;8.980;2024-03-29T05:15:57;4.50;;;0.97;;
5167;SDS011;2603;48.918;8.980;2024-03-29T05:18:23;1.97;;;0.90;;
5167;SDS011;2603;48.918;8.980;2024-03-29T05:20:50;1.77;;;0.87;;
5167;SDS011;2603;48.918;8.980;2024-03-29T05:23:16;2.50;;;1.00;;
5167;SDS011;2603;48.918;8.980;2024-03-29T05:25:43;1.73;;;0.80;;
5167;SDS011;2603;48.918;8.980;2024-03-29T05:28:09;1.47;;;0.77;;
5167;SDS011;2603;48.918;8.980;2024-03-29T05:30:37;2.50;;;0.90;;
5167;SDS011;2603;48.918;8.980;2024-03-29T05:33:04;2.00;;;0.90;;
5167;SDS011;2603;48.918;8.980;2024-03-29T05:35:31;1.60;;;0.77;;
5167;SDS011;2603;48.918;8.980;2024-03-29T05:37:58;1.67;;;0.90;;
5167;SDS011;2603;48.918;8.980;2024-03-29T05:40:24;1.53;;;0.87;;
5167;SDS011;2603;48.918;8.980;2024-03-29T05:42:52;3.93;;;0.77;;
5167;SDS011;2603;48.918;8.980;2024-03-29T05:45:23;1.97;;;0.80;;
5167;SDS011;2603;48.918;8.980;2024-03-29T05:47:53;3.67;;;0.77;;
5167;SDS011;2603;48.918;8.980;2024-03-29T05:50:19;2.70;;;1.07;;
5167;SDS011;2603;48.918;8.980;2024-03-29T05:52:46;2.13;;;0.90;;
5167;SDS011;2603;48.918;8.980;2024-03-29T05:55:13;1.93;;;0.90;;
5167;SDS011;2603;48.918;8.980;2024-03-29T05:57:40;2.50;;;0.80;;
5167;SDS011;2603;48.918;8.980;2024-03-29T06:00:10;1.90;;;0.90;;
5167;SDS011;2603;48.918;8.980;2024-03-29T06:02:38;2.30;;;1.43;;
5167;SDS011;2603;48.918;8.980;2024-03-29T06:05:07;2.90;;;0.77;;
5167;SDS011;2603;48.918;8.980;2024-03-29T06:07:34;1.80;;;1.00;;
5167;SDS011;2603;48.918;8.980;2024-03-29T06:10:00;2.30;;;1.00;;
5167;SDS011;2603;48.918;8.980;2024-03-29T06:12:29;2.37;;;1.00;;
5167;SDS011;2603;48.918;8.980;2024-03-29T06:14:56;1.67;;;0.70;;
5167;SDS011;2603;48.918;8.980;2024-03-29T06:17:40;1.63;;;0.90;;
5167;SDS011;2603;48.918;8.980;2024-03-29T06:20:08;1.43;;;0.70;;
5167;SDS011;2603;48.918;8.980;2024-03-29T06:22:35;1.20;;;0.60;;
5167;SDS011;2603;48.918;8.980;2024-03-29T06:25:01;3.97;;;0.97;;
5167;SDS011;2603;48.918;8.980;2024-03-29T06:27:30;1.40;;;0.80;;
5167;SDS011;2603;48.918;8.980;2024-03-29T06:29:56;1.20;;;0.70;;
5167;SDS011;2603;48.918;8.980;2024-03-29T06:32:23;2.03;;;0.80;;
5167;SDS011;2603;48.918;8.980;2024-03-29T06:34:49;1.70;;;0.90;;
5167;SDS011;2603;48.918;8.980;2024-03-29T06:37:17;4.97;;;1.07;;
5167;SDS011;2603;48.918;8.980;2024-03-29T06:39:45;2.00;;;0.93;;
5167;SDS011;2603;48.918;8.980;2024-03-29T06:42:12;4.17;;;1.33;;
5167;SDS011;2603;48.918;8.980;2024-03-29T06:44:38;3.03;;;1.53;;
5167;SDS011;2603;48.918;8.980;2024-03-29T06:47:07;4.83;;;0.70;;
5167;SDS011;2603;48.918;8.980;2024-03-29T06:49:34;2.03;;;1.00;;
5167;SDS011;2603;48.918;8.980;2024-03-29T06:52:00;3.63;;;1.20;;
5167;SDS011;2603;48.918;8.980;2024-03-29T06:54:28;3.60;;;1.00;;
5167;SDS011;2603;48.918;8.980;2024-03-29T06:56:54;1.77;;;0.90;;
5167;SDS011;2603;48.918;8.980;2024-03-29T06:59:21;2.50;;;0.97;;
5167;SDS011;2603;48.918;8.980;2024-03-29T07:01:48;2.50;;;1.00;;
5167;SDS011;2603;48.918;8.980;2024-03-29T07:04:17;3.07;;;0.83;;
5167;SDS011;2603;48.918;8.980;2024-03-29T07:06:44;2.40;;;0.90;;
5167;SDS011;2603;48.918;8.980;2024-03-29T07:09:13;2.33;;;0.87;;
5167;SDS011;2603;48.918;8.980;2024-03-29T07:11:40;6.33;;;1.57;;
5167;SDS011;2603;48.918;8.980;2024-03-29T07:14:07;4.10;;;1.53;;
5167;SDS011;2603;48.918;8.980;2024-03-29T07:16:33;5.10;;;1.20;;
5167;SDS011;2603;48.918;8.980;2024-03-29T07:19:00;2.50;;;1.27;;
5167;SDS011;2603;48.918;8.980;2024-03-29T07:21:28;1.87;;;1.10;;
5167;SDS011;2603;48.918;8.980;2024-03-29T07:23:54;2.50;;;1.10;;
5167;SDS011;2603;48.918;8.980;2024-03-29T07:26:21;1.80;;;0.73;;
5167;SDS011;2603;48.918;8.980;2024-03-29T07:28:48;14.47;;;1.27;;
5167;SDS011;2603;48.918;8.980;2024-03-29T07:31:15;1.77;;;1.10;;
5167;SDS011;2603;48.918;8.980;2024-03-29T07:33:41;12.43;;;1.60;;
5167;SDS011;2603;48.918;8.980;2024-03-29T07:36:08;2.47;;;1.23;;
5167;SDS011;2603;48.918;8.980;2024-03-29T07:38:36;11.80;;;1.33;;
5167;SDS011;2603;48.918;8.980;2024-03-29T07:41:03;4.53;;;1.30;;
5167;SDS011;2603;48.918;8.980;2024-03-29T07:43:36;2.50;;;1.07;;
5167;SDS011;2603;48.918;8.980;2024-03-29T07:46:05;4.23;;;1.30;;
5167;SDS011;2603;48.918;8.980;2024-03-29T07:48:33;5.70;;;2.10;;
5167;SDS011;2603;48.918;8.980;2024-03-29T07:51:00;2.90;;;1.53;;
5167;SDS011;2603;48.918;8.980;2024-03-29T07:53:27;3.63;;;1.10;;
5167;SDS011;2603;48.918;8.980;2024-03-29T07:55:53;5.37;;;1.63;;
5167;SDS011;2603;48.918;8.980;2024-03-29T07:58:20;5.43;;;1.93;;
5167;SDS011;2603;48.918;8.980;2024-03-29T08:00:47;6.20;;;2.70;;
5167;SDS011;2603;48.918;8.980;2024-03-29T08:03:15;6.80;;;3.40;;
5167;SDS011;2603;48.918;8.980;2024-03-29T08:05:41;9.83;;;4.93;;
5167;SDS011;2603;48.918;8.980;2024-03-29T08:08:07;14.47;;;6.47;;
5167;SDS011;2603;48.918;8.980;2024-03-29T08:10:34;8.60;;;3.27;;
5167;SDS011;2603;48.918;8.980;2024-03-29T08:13:00;3.23;;;1.60;;
5167;SDS011;2603;48.918;8.980;2024-03-29T08:15:27;2.70;;;1.37;;
5167;SDS011;2603;48.918;8.980;2024-03-29T08:17:53;6.70;;;3.63;;
5167;SDS011;2603;48.918;8.980;2024-03-29T08:20:21;10.27;;;2.20;;
5167;SDS011;2603;48.918;8.980;2024-03-29T08:22:54;7.10;;;1.90;;
5167;SDS011;2603;48.918;8.980;2024-03-29T08:25:23;7.90;;;4.00;;
5167;SDS011;2603;48.918;8.980;2024-03-29T08:27:51;6.07;;;2.43;;
5167;SDS011;2603;48.918;8.980;2024-03-29T08:30:23;2.90;;;1.60;;
5167;SDS011;2603;48.918;8.980;2024-03-29T08:32:50;2.83;;;1.63;;
5167;SDS011;2603;48.918;8.980;2024-03-29T08:35:17;2.40;;;1.50;;
5167;SDS011;2603;48.918;8.980;2024-03-29T08:37:45;8.70;;;2.93;;
5167;SDS011;2603;48.918;8.980;2024-03-29T08:40:12;3.90;;;1.97;;
5167;SDS011;2603;48.918;8.980;2024-03-29T08:42:39;4.00;;;1.73;;
5167;SDS011;2603;48.918;8.980;2024-03-29T08:45:05;2.77;;;1.60;;
5167;SDS011;2603;48.918;8.980;2024-03-29T08:47:33;4.37;;;1.03;;
5167;SDS011;2603;48.918;8.980;2024-03-29T08:49:59;5.20;;;1.40;;
5167;SDS011;2603;48.918;8.980;2024-03-29T08:52:28;3.20;;;1.30;;
5167;SDS011;2603;48.918;8.980;2024-03-29T08:54:56;4.73;;;1.60;;
5167;SDS011;2603;48.918;8.980;2024-03-29T08:57:23;8.30;;;1.90;;
5167;SDS011;2603;48.918;8.980;2024-03-29T08:59:49;5.80;;;3.37;;
5167;SDS011;2603;48.918;8.980;2024-03-29T09:02:16;3.30;;;2.20;;
5167;SDS011;2603;48.918;8.980;2024-03-29T09:04:43;1.93;;;1.20;;
5167;SDS011;2603;48.918;8.980;2024-03-29T09:07:10;4.40;;;1.87;;
5167;SDS011;2603;48.918;8.980;2024-03-29T09:09:36;4.73;;;1.33;;
5167;SDS011;2603;48.918;8.980;2024-03-29T09:12:07;3.20;;;1.60;;
5167;SDS011;2603;48.918;8.980;2024-03-29T09:14:34;2.40;;;1.27;;
5167;SDS011;2603;48.918;8.980;2024-03-29T09:17:00;3.27;;;2.10;;
5167;SDS011;2603;48.918;8.980;2024-03-29T09:19:28;5.10;;;1.30;;
5167;SDS011;2603;48.918;8.980;2024-03-29T09:21:56;2.80;;;1.43;;
5167;SDS011;2603;48.918;8.980;2024-03-29T09:24:21;12.60;;;4.40;;
5167;SDS011;2603;48.918;8.980;2024-03-29T09:26:50;4.23;;;1.60;;
5167;SDS011;2603;48.918;8.980;2024-03-29T09:29:18;4.70;;;2.20;;
5167;SDS011;2603;48.918;8.980;2024-03-29T09:31:46;8.17;;;1.67;;
5167;SDS011;2603;48.918;8.980;2024-03-29T09:34:12;2.93;;;1.50;;
5167;SDS011;2603;48.918;8.980;2024-03-29T09:36:39;4.50;;;2.07;;
5167;SDS011;2603;48.918;8.980;2024-03-29T09:39:06;4.17;;;2.03;;
5167;SDS011;2603;48.918;8.980;2024-03-29T09:41:34;9.13;;;4.40;;
5167;SDS011;2603;48.918;8.980;2024-03-29T09:44:02;6.20;;;1.60;;
5167;SDS011;2603;48.918;8.980;2024-03-29T09:46:32;2.83;;;1.80;;
5167;SDS011;2603;48.918;8.980;2024-03-29T09:48:59;5.60;;;2.13;;
5167;SDS011;2603;48.918;8.980;2024-03-29T09:51:27;2.10;;;1.00;;
5167;SDS011;2603;48.918;8.980;2024-03-29T09:53:54;8.70;;;3.10;;
5167;SDS011;2603;48.918;8.980;2024-03-29T09:56:22;5.77;;;1.70;;
5167;SDS011;2603;48.918;8.980;2024-03-29T09:58:48;16.30;;;6.63;;
5167;SDS011;2603;48.918;8.980;2024-03-29T10:01:15;5.83;;;2.10;;
5167;SDS011;2603;48.918;8.980;2024-03-29T10:03:44;7.00;;;1.50;;
5167;SDS011;2603;48.918;8.980;2024-03-29T10:06:14;8.00;;;3.33;;
5167;SDS011;2603;48.918;8.980;2024-03-29T10:08:42;9.90;;;6.30;;
5167;SDS011;2603;48.918;8.980;2024-03-29T10:11:09;4.47;;;2.47;;
5167;SDS011;2603;48.918;8.980;2024-03-29T10:13:36;6.40;;;4.20;;
5167;SDS011;2603;48.918;8.980;2024-03-29T10:16:03;9.67;;;4.00;;
5167;SDS011;2603;48.918;8.980;2024-03-29T10:18:30;11.30;;;4.77;;
5167;SDS011;2603;48.918;8.980;2024-03-29T10:21:01;10.00;;;5.97;;
5167;SDS011;2603;48.918;8.980;2024-03-29T10:23:28;8.97;;;5.23;;
5167;SDS011;2603;48.918;8.980;2024-03-29T10:25:55;5.73;;;2.80;;
5167;SDS011;2603;48.918;8.980;2024-03-29T10:28:22;3.30;;;1.63;;
5167;SDS011;2603;48.918;8.980;2024-03-29T10:30:48;4.07;;;2.00;;
5167;SDS011;2603;48.918;8.980;2024-03-29T10:33:15;4.33;;;2.57;;
5167;SDS011;2603;48.918;8.980;2024-03-29T10:35:42;3.30;;;2.20;;
5167;SDS011;2603;48.918;8.980;2024-03-29T10:38:10;3.13;;;1.70;;
5167;SDS011;2603;48.918;8.980;2024-03-29T10:40:37;11.00;;;3.80;;
5167;SDS011;2603;48.918;8.980;2024-03-29T10:43:06;7.73;;;3.30;;
5167;SDS011;2603;48.918;8.980;2024-03-29T10:45:37;4.30;;;2.30;;
5167;SDS011;2603;48.918;8.980;2024-03-29T10:48:04;3.07;;;1.80;;
5167;SDS011;2603;48.918;8.980;2024-03-29T10:50:34;3.20;;;1.60;;
5167;SDS011;2603;48.918;8.980;2024-03-29T10:53:01;4.50;;;2.37;;
5167;SDS011;2603;48.918;8.980;2024-03-29T10:55:29;4.43;;;2.30;;
5167;SDS011;2603;48.918;8.980;2024-03-29T10:57:56;8.03;;;2.00;;
5167;SDS011;2603;48.918;8.980;2024-03-29T11:00:23;4.83;;;2.67;;
5167;SDS011;2603;48.918;8.980;2024-03-29T11:02:51;6.13;;;2.50;;
5167;SDS011;2603;48.918;8.980;2024-03-29T11:05:26;4.23;;;2.10;;
5167;SDS011;2603;48.918;8.980;2024-03-29T11:07:54;4.70;;;2.57;;
5167;SDS011;2603;48.918;8.980;2024-03-29T11:10:22;5.67;;;3.23;;
5167;SDS011;2603;48.918;8.980;2024-03-29T11:12:57;5.20;;;2.43;;
5167;SDS011;2603;48.918;8.980;2024-03-29T11:15:28;5.90;;;2.60;;
5167;SDS011;2603;48.918;8.980;2024-03-29T11:17:55;9.10;;;2.37;;
5167;SDS011;2603;48.918;8.980;2024-03-29T11:20:23;4.90;;;2.83;;
5167;SDS011;2603;48.918;8.980;2024-03-29T11:22:59;5.17;;;2.33;;
5167;SDS011;2603;48.918;8.980;2024-03-29T11:25:37;4.83;;;2.70;;
5167;SDS011;2603;48.918;8.980;2024-03-29T11:28:06;9.17;;;3.73;;
5167;SDS011;2603;48.918;8.980;2024-03-29T11:30:38;5.20;;;2.20;;
5167;SDS011;2603;48.918;8.980;2024-03-29T11:33:06;6.70;;;2.70;;
5167;SDS011;2603;48.918;8.980;2024-03-29T11:35:33;5.93;;;2.30;;
5167;SDS011;2603;48.918;8.980;2024-03-29T11:37:59;4.10;;;2.37;;
5167;SDS011;2603;48.918;8.980;2024-03-29T11:40:29;3.23;;;1.60;;
5167;SDS011;2603;48.918;8.980;2024-03-29T11:42:56;3.13;;;1.83;;
5167;SDS011;2603;48.918;8.980;2024-03-29T11:45:24;7.40;;;2.20;;
5167;SDS011;2603;48.918;8.980;2024-03-29T11:47:53;6.50;;;2.00;;
5167;SDS011;2603;48.918;8.980;2024-03-29T11:50:21;2.90;;;1.77;;
5167;SDS011;2603;48.918;8.980;2024-03-29T11:52:47;3.40;;;1.60;;
5167;SDS011;2603;48.918;8.980;2024-03-29T11:55:14;3.30;;;2.00;;
5167;SDS011;2603;48.918;8.980;2024-03-29T11:57:41;5.67;;;2.10;;
5167;SDS011;2603;48.918;8.980;2024-03-29T12:00:08;8.10;;;2.67;;
5167;SDS011;2603;48.918;8.980;2024-03-29T12:02:37;3.43;;;1.97;;
5167;SDS011;2603;48.918;8.980;2024-03-29T12:05:06;4.80;;;2.10;;
5167;SDS011;2603;48.918;8.980;2024-03-29T12:07:34;2.90;;;1.47;;
5167;SDS011;2603;48.918;8.980;2024-03-29T12:10:01;5.47;;;2.40;;
5167;SDS011;2603;48.918;8.980;2024-03-29T12:12:28;5.30;;;2.90;;
5167;SDS011;2603;48.918;8.980;2024-03-29T12:14:59;3.80;;;1.67;;
5167;SDS011;2603;48.918;8.980;2024-03-29T12:17:26;2.80;;;1.77;;
5167;SDS011;2603;48.918;8.980;2024-03-29T12:19:58;5.03;;;2.60;;
5167;SDS011;2603;48.918;8.980;2024-03-29T12:22:30;4.40;;;2.40;;
5167;SDS011;2603;48.918;8.980;2024-03-29T12:24:56;4.33;;;2.57;;
5167;SDS011;2603;48.918;8.980;2024-03-29T12:27:23;9.93;;;2.67;;
5167;SDS011;2603;48.918;8.980;2024-03-29T12:29:50;6.87;;;2.33;;
5167;SDS011;2603;48.918;8.980;2024-03-29T12:32:18;20.50;;;7.13;;
5167;SDS011;2603;48.918;8.980;2024-03-29T12:34:45;7.93;;;4.23;;
5167;SDS011;2603;48.918;8.980;2024-03-29T12:37:13;8.63;;;2.20;;
5167;SDS011;2603;48.918;8.980;2024-03-29T12:39:40;3.90;;;2.40;;
5167;SDS011;2603;48.918;8.980;2024-03-29T12:42:07;4.20;;;2.17;;
5167;SDS011;2603;48.918;8.980;2024-03-29T12:44:34;5.27;;;2.43;;
5167;SDS011;2603;48.918;8.980;2024-03-29T12:47:00;2.60;;;1.80;;
5167;SDS011;2603;48.918;8.980;2024-03-29T12:49:27;4.20;;;1.70;;
5167;SDS011;2603;48.918;8.980;2024-03-29T12:51:55;5.63;;;2.17;;
5167;SDS011;2603;48.918;8.980;2024-03-29T12:54:23;3.10;;;1.80;;
5167;SDS011;2603;48.918;8.980;2024-03-29T12:56:52;5.13;;;3.03;;
5167;SDS011;2603;48.918;8.980;2024-03-29T12:59:19;3.67;;;1.90;;
5167;SDS011;2603;48.918;8.980;2024-03-29T13:01:46;16.50;;;4.50;;
5167;SDS011;2603;48.918;8.980;2024-03-29T13:04:12;3.30;;;1.60;;
5167;SDS011;2603;48.918;8.980;2024-03-29T13:06:39;3.10;;;1.50;;
5167;SDS011;2603;48.918;8.980;2024-03-29T13:09:05;4.27;;;1.80;;
5167;SDS011;2603;48.918;8.980;2024-03-29T13:11:34;4.00;;;2.07;;
5167;SDS011;2603;48.918;8.980;2024-03-29T13:14:01;3.63;;;1.73;;
5167;SDS011;2603;48.918;8.980;2024-03-29T13:16:27;5.33;;;2.00;;
5167;SDS011;2603;48.918;8.980;2024-03-29T13:18:54;4.93;;;1.77;;
5167;SDS011;2603;48.918;8.980;2024-03-29T13:21:20;7.53;;;1.67;;
5167;SDS011;2603;48.918;8.980;2024-03-29T13:23:47;3.40;;;1.50;;
5167;SDS011;2603;48.918;8.980;2024-03-29T13:26:13;6.13;;;1.80;;
5167;SDS011;2603;48.918;8.980;2024-03-29T13:28:41;4.50;;;1.93;;
5167;SDS011;2603;48.918;8.980;2024-03-29T13:31:08;4.60;;;1.80;;
5167;SDS011;2603;48.918;8.980;2024-03-29T13:33:34;3.40;;;1.50;;
5167;SDS011;2603;48.918;8.980;2024-03-29T13:36:01;2.80;;;1.40;;
5167;SDS011;2603;48.918;8.980;2024-03-29T13:38:27;4.70;;;2.00;;
5167;SDS011;2603;48.918;8.980;2024-03-29T13:40:54;4.60;;;2.30;;
5167;SDS011;2603;48.918;8.980;2024-03-29T13:43:22;3.63;;;2.13;;
5167;SDS011;2603;48.918;8.980;2024-03-29T13:45:50;3.33;;;1.60;;
5167;SDS011;2603;48.918;8.980;2024-03-29T13:48:17;10.47;;;5.40;;
5167;SDS011;2603;48.918;8.980;2024-03-29T13:50:44;4.33;;;1.60;;
5167;SDS011;2603;48.918;8.980;2024-03-29T13:53:11;2.90;;;1.47;;
5167;SDS011;2603;48.918;8.980;2024-03-29T13:55:38;4.00;;;1.60;;
5167;SDS011;2603;48.918;8.980;2024-03-29T13:58:04;3.37;;;1.37;;
5167;SDS011;2603;48.918;8.980;2024-03-29T14:00:31;1.50;;;0.90;;
5167;SDS011;2603;48.918;8.980;2024-03-29T14:02:59;2.47;;;1.30;;
5167;SDS011;2603;48.918;8.980;2024-03-29T14:05:27;2.97;;;1.10;;
5167;SDS011;2603;48.918;8.980;2024-03-29T14:07:54;3.43;;;1.00;;
5167;SDS011;2603;48.918;8.980;2024-03-29T14:10:20;3.30;;;1.17;;
5167;SDS011;2603;48.918;8.980;2024-03-29T14:12:47;3.97;;;1.30;;
5167;SDS011;2603;48.918;8.980;2024-03-29T14:15:17;3.60;;;1.43;;
5167;SDS011;2603;48.918;8.980;2024-03-29T14:17:43;2.33;;;1.10;;
5167;SDS011;2603;48.918;8.980;2024-03-29T14:20:11;2.93;;;0.90;;
5167;SDS011;2603;48.918;8.980;2024-03-29T14:22:38;5.10;;;1.40;;
5167;SDS011;2603;48.918;8.980;2024-03-29T14:25:05;2.80;;;1.10;;
5167;SDS011;2603;48.918;8.980;2024-03-29T14:27:35;3.33;;;1.07;;
5167;SDS011;2603;48.918;8.980;2024-03-29T14:30:08;7.40;;;1.53;;
5167;SDS011;2603;48.918;8.980;2024-03-29T14:32:36;2.90;;;1.27;;
5167;SDS011;2603;48.918;8.980;2024-03-29T14:35:02;2.53;;;1.17;;
5167;SDS011;2603;48.918;8.980;2024-03-29T14:37:31;1.90;;;1.00;;
5167;SDS011;2603;48.918;8.980;2024-03-29T14:39:58;2.47;;;0.90;;
5167;SDS011;2603;48.918;8.980;2024-03-29T14:42:24;3.10;;;1.23;;
5167;SDS011;2603;48.918;8.980;2024-03-29T14:44:51;2.43;;;0.90;;
5167;SDS011;2603;48.918;8.980;2024-03-29T14:47:17;3.10;;;0.80;;
5167;SDS011;2603;48.918;8.980;2024-03-29T14:49:44;2.10;;;1.00;;
5167;SDS011;2603;48.918;8.980;2024-03-29T14:52:10;4.00;;;1.10;;
5167;SDS011;2603;48.918;8.980;2024-03-29T14:54:38;4.67;;;1.30;;
5167;SDS011;2603;48.918;8.980;2024-03-29T14:57:05;2.90;;;1.13;;
5167;SDS011;2603;48.918;8.980;2024-03-29T14:59:31;3.63;;;1.37;;
5167;SDS011;2603;48.918;8.980;2024-03-29T15:01:59;3.37;;;1.13;;
5167;SDS011;2603;48.918;8.980;2024-03-29T15:04:26;5.27;;;1.83;;
5167;SDS011;2603;48.918;8.980;2024-03-29T15:06:52;3.00;;;1.17;;
5167;SDS011;2603;48.918;8.980;2024-03-29T15:09:19;1.83;;;0.80;;
5167;SDS011;2603;48.918;8.980;2024-03-29T15:11:47;4.57;;;1.40;;
5167;SDS011;2603;48.918;8.980;2024-03-29T15:14:13;2.67;;;1.07;;